Alpha, Minnesota
Current Conditions -  °F | °C
As of 10:33 AM on Sunday 21 Dec 2014 (Local Time) from KMJQ Reporting Station
Haze Haze  
Wind Chill: 27°   Ceiling: 200
Heat Index: 36°   Visibility: 1.7mi
Dew Point: 34°   Wind: 14mph
Humidity: 93%   Direction: 190°S
Pressure: 29.79"   Gusts: NA
Location:  43.64°N, 94.87°W
Report Text: KMJQ 211633Z AUTO 19012KT 1 3/4SM BR OVC002 02/01 A2979 RMK AO2
Loading
Personal Weather Stations






























Interactive Weather Map New forecast layout! Learn more

10-Day Weather Forecast

Advertisements
Track Severe Weather on mobile